Time;durP1;ratioP1;P1;durP2;ratioP2;P2;SDS_P1;SDS_P2;PMS_P1;PMS_P2;Temp;Humidity;BMP_temperature;BMP_pressure;BME280_temperature;BME280_humidity;BME280_pressure;Samples;Min_cycle;Max_cycle;Signal;HPM_P1;HPM_P2
2022/10/26 00:08:14;;;;;;;3.97;2.03;;;12.00;99.90;;;;;;20731979;28;20057;-38
2022/10/26 00:18:15;;;;;;;2.17;0.90;;;12.10;99.90;;;;;;20733564;28;20053;-38
2022/10/26 00:28:16;;;;;;;2.53;1.20;;;12.10;99.90;;;;;;20733090;28;20049;-38
2022/10/26 00:38:19;;;;;;;3.15;1.10;;;12.10;99.90;;;;;;20727242;28;20064;-38
2022/10/26 00:48:28;;;;;;;3.55;1.35;;;12.10;99.90;;;;;;20725911;28;20126;-38
2022/10/26 00:58:30;;;;;;;2.75;1.10;;;12.10;99.90;;;;;;20725783;28;20240;-38
2022/10/26 01:08:31;;;;;;;1.80;1.20;;;12.10;99.90;;;;;;20730000;28;20251;-38
2022/10/26 01:18:51;;;;;;;3.45;1.30;;;12.20;99.90;;;;;;20728669;28;20442;-38
2022/10/26 01:29:24;;;;;;;3.08;1.25;;;12.20;99.90;;;;;;20723743;28;20154;-38
2022/10/26 01:39:48;;;;;;;2.30;1.63;;;12.20;99.90;;;;;;20806021;28;20674;-38
2022/10/26 01:49:54;;;;;;;2.95;1.50;;;12.20;99.90;;;;;;20827519;28;21000;-38
2022/10/26 02:00:11;;;;;;;3.22;1.48;;;12.30;99.90;;;;;;20825829;28;20171;-38
2022/10/26 02:10:18;;;;;;;1.73;0.90;;;12.30;99.90;;;;;;20819292;28;20135;-38
2022/10/26 02:20:33;;;;;;;3.73;2.03;;;12.30;99.90;;;;;;20817901;28;20045;-38
2022/10/26 02:30:37;;;;;;;3.50;1.58;;;12.40;99.90;;;;;;20820088;28;21216;-38
2022/10/26 02:40:39;;;;;;;2.55;1.15;;;12.50;99.90;;;;;;20818671;28;20171;-38
2022/10/26 02:51:02;;;;;;;1.90;0.93;;;12.60;99.90;;;;;;20820326;28;20045;-38
2022/10/26 03:01:03;;;;;;;3.00;0.82;;;12.60;99.90;;;;;;20813874;28;20262;-38
2022/10/26 03:11:05;;;;;;;2.55;1.15;;;12.70;99.90;;;;;;20820840;28;20053;-38
2022/10/26 03:21:06;;;;;;;1.83;1.05;;;12.70;99.90;;;;;;20815493;28;20049;-38
2022/10/26 03:31:07;;;;;;;4.80;1.42;;;12.80;99.90;;;;;;20813122;28;20052;-38
2022/10/26 03:41:08;;;;;;;1.60;1.00;;;12.80;99.90;;;;;;20812876;28;20548;-38
2022/10/26 03:51:09;;;;;;;3.85;1.65;;;12.90;99.90;;;;;;20814324;28;22051;-38
2022/10/26 04:01:10;;;;;;;8.70;1.17;;;12.90;99.90;;;;;;20813414;28;20484;-38
2022/10/26 04:11:11;;;;;;;2.88;1.05;;;12.90;99.90;;;;;;20814282;28;20119;-38
2022/10/26 04:21:12;;;;;;;2.92;0.82;;;12.90;99.90;;;;;;20820480;28;20060;-38
2022/10/26 04:31:13;;;;;;;13.02;2.22;;;13.00;99.90;;;;;;20814473;28;20580;-38
2022/10/26 04:41:15;;;;;;;2.35;0.80;;;13.10;99.90;;;;;;20809870;28;20091;-38
2022/10/26 04:51:16;;;;;;;1.58;0.68;;;13.10;99.90;;;;;;20810047;28;20146;-38
2022/10/26 05:01:17;;;;;;;1.75;0.80;;;13.00;99.90;;;;;;20814651;28;20135;-38
2022/10/26 05:11:18;;;;;;;2.97;1.52;;;12.90;99.90;;;;;;20813986;28;20049;-38
2022/10/26 05:21:19;;;;;;;5.15;1.67;;;12.80;99.90;;;;;;20825659;28;20060;-38
2022/10/26 05:31:20;;;;;;;5.28;2.22;;;12.90;99.90;;;;;;20824243;28;20107;-38
2022/10/26 05:41:21;;;;;;;2.35;1.45;;;12.90;99.90;;;;;;20824669;28;20049;-38
2022/10/26 05:51:22;;;;;;;2.38;1.30;;;12.90;99.90;;;;;;20824375;28;20055;-38
2022/10/26 06:01:23;;;;;;;3.17;1.65;;;13.10;99.90;;;;;;20807336;28;20945;-38
2022/10/26 06:11:24;;;;;;;1.60;0.70;;;13.10;99.90;;;;;;20824809;28;20040;-38
2022/10/26 06:21:44;;;;;;;2.17;1.23;;;13.10;99.90;;;;;;20804234;28;20234;-38
2022/10/26 06:31:46;;;;;;;2.55;1.45;;;13.10;99.90;;;;;;20808183;28;21851;-38
2022/10/26 06:41:47;;;;;;;2.42;1.35;;;13.00;99.90;;;;;;20809429;28;20908;-38
2022/10/26 06:52:00;;;;;;;3.17;1.20;;;13.00;99.90;;;;;;20815544;28;20053;-38
2022/10/26 07:02:01;;;;;;;4.75;1.77;;;13.00;99.90;;;;;;20814722;28;20527;-38
2022/10/26 07:12:02;;;;;;;3.00;1.58;;;13.10;99.90;;;;;;20810250;28;20469;-38
2022/10/26 07:22:03;;;;;;;1.85;0.90;;;13.20;99.90;;;;;;20806019;28;21017;-38
2022/10/26 07:32:04;;;;;;;3.50;1.33;;;13.40;99.90;;;;;;20807347;28;20544;-38
2022/10/26 07:42:05;;;;;;;5.47;1.67;;;13.50;99.90;;;;;;20804668;28;20139;-38
2022/10/26 07:52:06;;;;;;;1.33;0.80;;;13.70;99.90;;;;;;20802424;28;20126;-38
2022/10/26 08:02:08;;;;;;;3.17;1.13;;;14.00;99.90;;;;;;20804755;28;20049;-38
2022/10/26 08:12:12;;;;;;;3.28;1.35;;;14.20;99.90;;;;;;20805350;28;20068;-38
2022/10/26 08:22:13;;;;;;;2.05;0.70;;;14.40;99.90;;;;;;20798389;28;20147;-38
2022/10/26 08:32:14;;;;;;;4.13;0.82;;;14.80;99.90;;;;;;20808348;28;20176;-38
2022/10/26 08:42:46;;;;;;;1.65;0.85;;;15.00;99.90;;;;;;20797375;28;20428;-38
2022/10/26 08:52:50;;;;;;;1.98;1.13;;;15.00;99.90;;;;;;20787433;28;20807;-38
2022/10/26 09:02:52;;;;;;;8.30;1.98;;;15.20;99.90;;;;;;20794574;28;20171;-38
2022/10/26 09:13:34;;;;;;;4.63;1.30;;;15.60;99.90;;;;;;20758522;28;20140;-38
2022/10/26 09:23:57;;;;;;;2.55;0.98;;;15.90;99.90;;;;;;20777982;28;20937;-38
2022/10/26 09:34:04;;;;;;;2.95;1.02;;;16.20;99.90;;;;;;20788716;28;20131;-40
2022/10/26 09:44:27;;;;;;;3.57;1.63;;;16.30;99.90;;;;;;20794100;28;20076;-41
2022/10/26 09:54:28;;;;;;;2.15;1.20;;;16.50;99.90;;;;;;20790467;28;20096;-40
2022/10/26 10:04:32;;;;;;;1.80;1.20;;;16.70;99.90;;;;;;20799472;28;20115;-41
2022/10/26 10:14:39;;;;;;;2.15;1.13;;;16.80;99.90;;;;;;20818254;28;20953;-41
2022/10/26 10:24:42;;;;;;;2.08;0.85;;;17.20;99.90;;;;;;20824678;28;20111;-40
2022/10/26 10:34:43;;;;;;;1.70;0.80;;;17.50;99.90;;;;;;20824749;28;20092;-41
2022/10/26 10:44:46;;;;;;;3.45;1.58;;;17.60;99.90;;;;;;20814307;28;20139;-40
2022/10/26 10:54:48;;;;;;;2.65;1.30;;;17.60;99.90;;;;;;20802346;28;20114;-40
2022/10/26 11:05:03;;;;;;;2.67;1.35;;;17.40;99.90;;;;;;20809964;28;20089;-40
2022/10/26 11:15:15;;;;;;;3.80;2.00;;;17.30;99.90;;;;;;20778405;28;20091;-40
2022/10/26 11:25:39;;;;;;;2.10;0.82;;;17.30;99.90;;;;;;20806679;28;20097;-40
2022/10/26 11:35:51;;;;;;;1.85;0.93;;;17.30;99.90;;;;;;20796963;28;20917;-40
2022/10/26 11:46:31;;;;;;;7.20;1.30;;;18.10;99.90;;;;;;20816227;28;20110;-38
2022/10/26 11:56:37;;;;;;;2.33;0.98;;;18.80;99.90;;;;;;20772384;28;20936;-38
2022/10/26 12:06:39;;;;;;;2.30;0.65;;;18.30;99.90;;;;;;20798866;28;20083;-38
2022/10/26 12:17:10;;;;;;;2.03;0.68;;;19.00;99.90;;;;;;20781293;28;20897;-38
2022/10/26 12:27:38;;;;;;;1.58;0.35;;;19.00;99.90;;;;;;20790790;28;20103;-39
2022/10/26 12:37:39;;;;;;;2.47;0.95;;;19.60;99.90;;;;;;20735848;28;1290469;-38
2022/10/26 12:47:40;;;;;;;0.77;0.45;;;19.70;99.90;;;;;;20796770;28;20154;-38
2022/10/26 12:57:50;;;;;;;4.13;1.10;;;20.20;99.90;;;;;;20795356;28;20044;-38
2022/10/26 13:07:59;;;;;;;2.00;0.65;;;20.20;99.90;;;;;;20801791;28;20073;-38
2022/10/26 13:18:18;;;;;;;8.43;1.63;;;20.70;99.90;;;;;;20798514;28;20076;-38
2022/10/26 13:28:36;;;;;;;5.72;1.25;;;20.80;99.90;;;;;;20799964;28;20084;-38
2022/10/26 13:38:37;;;;;;;2.20;0.63;;;20.40;99.90;;;;;;20806049;28;20854;-38
2022/10/26 13:48:40;;;;;;;1.88;0.73;;;20.10;99.90;;;;;;20820093;28;20104;-38
2022/10/26 13:58:49;;;;;;;12.25;1.08;;;19.40;99.90;;;;;;20808823;28;20065;-38
2022/10/26 14:08:54;;;;;;;1.17;0.60;;;19.70;99.90;;;;;;20815885;28;20148;-38
2022/10/26 14:18:55;;;;;;;2.22;1.02;;;20.00;99.90;;;;;;20814218;28;20068;-38
2022/10/26 14:28:59;;;;;;;1.95;0.35;;;20.30;99.90;;;;;;20810496;28;20126;-38
2022/10/26 14:39:05;;;;;;;2.00;0.50;;;20.20;99.90;;;;;;20799557;28;20231;-38
2022/10/26 14:49:18;;;;;;;1.75;0.55;;;19.80;99.90;;;;;;20797352;28;20190;-38
2022/10/26 14:59:26;;;;;;;0.63;0.30;;;19.20;99.90;;;;;;20801024;28;20160;-39
2022/10/26 15:09:37;;;;;;;1.67;0.75;;;18.80;99.90;;;;;;20797576;28;20808;-38
2022/10/26 15:19:38;;;;;;;3.13;0.38;;;18.70;99.90;;;;;;20801011;28;20923;-38
2022/10/26 15:29:45;;;;;;;1.98;0.43;;;18.70;99.90;;;;;;20807289;28;20147;-38
2022/10/26 15:39:46;;;;;;;1.90;0.50;;;18.60;99.90;;;;;;20790154;28;20081;-38
2022/10/26 15:49:47;;;;;;;1.25;0.40;;;18.60;99.90;;;;;;20816778;28;20056;-38
2022/10/26 15:59:48;;;;;;;0.95;0.32;;;18.50;99.90;;;;;;20814759;28;20048;-38
2022/10/26 16:09:49;;;;;;;0.90;0.40;;;18.40;99.90;;;;;;20826631;28;20053;-38
2022/10/26 16:19:50;;;;;;;4.68;0.98;;;18.30;99.90;;;;;;20811268;28;20080;-38
2022/10/26 16:29:51;;;;;;;5.30;1.45;;;18.10;99.90;;;;;;20801647;28;20201;-38
2022/10/26 16:39:52;;;;;;;5.60;1.27;;;18.00;99.90;;;;;;20802839;28;20053;-38
2022/10/26 16:49:53;;;;;;;14.52;4.78;;;18.00;99.90;;;;;;20815077;28;20049;-38
2022/10/26 16:59:54;;;;;;;1.63;0.60;;;17.90;99.90;;;;;;20815981;28;20068;-38
2022/10/26 17:09:55;;;;;;;1.35;0.75;;;17.80;99.90;;;;;;20808439;28;20481;-38
2022/10/26 17:19:56;;;;;;;1.92;0.80;;;17.60;99.90;;;;;;20815391;28;20045;-38
2022/10/26 17:29:57;;;;;;;2.45;1.23;;;17.50;99.90;;;;;;20818392;28;20118;-38
2022/10/26 17:39:58;;;;;;;2.47;0.70;;;17.30;99.90;;;;;;20809312;28;20148;-38
2022/10/26 17:49:59;;;;;;;4.57;2.05;;;17.00;99.90;;;;;;20798228;28;20061;-38
2022/10/26 18:00:00;;;;;;;2.90;0.52;;;16.90;99.90;;;;;;20813389;28;20052;-38
2022/10/26 18:10:01;;;;;;;2.35;0.85;;;16.80;99.90;;;;;;20818564;28;20060;-38
2022/10/26 18:20:02;;;;;;;1.75;0.75;;;16.70;99.90;;;;;;20821373;28;20654;-38
2022/10/26 18:30:04;;;;;;;2.35;0.88;;;16.60;99.90;;;;;;20830573;28;20092;-38
2022/10/26 18:40:05;;;;;;;2.15;0.85;;;16.50;99.90;;;;;;20834895;28;20037;-38
2022/10/26 18:50:07;;;;;;;1.70;0.60;;;16.50;99.90;;;;;;20829099;28;20053;-38
2022/10/26 19:00:08;;;;;;;1.48;0.65;;;16.50;99.90;;;;;;20829780;28;20041;-38
2022/10/26 19:10:09;;;;;;;4.13;0.68;;;16.30;99.90;;;;;;20827810;28;20107;-38
2022/10/26 19:20:11;;;;;;;2.13;0.93;;;16.20;99.90;;;;;;20829827;28;20038;-38
2022/10/26 19:30:12;;;;;;;1.52;0.63;;;16.10;99.90;;;;;;20827641;28;21031;-38
2022/10/26 19:40:13;;;;;;;4.70;1.80;;;16.00;99.90;;;;;;20825091;28;20195;-38
2022/10/26 19:50:14;;;;;;;4.10;0.85;;;16.00;99.90;;;;;;20828136;28;20075;-38
2022/10/26 20:00:16;;;;;;;1.58;0.60;;;16.00;99.90;;;;;;20824595;28;20083;-38
2022/10/26 20:10:16;;;;;;;3.25;1.33;;;16.00;99.90;;;;;;20800785;28;20085;-38
2022/10/26 20:20:17;;;;;;;1.20;0.60;;;16.00;99.90;;;;;;20821334;28;20092;-38
2022/10/26 20:30:19;;;;;;;1.90;0.90;;;15.80;99.90;;;;;;20816356;28;20155;-38
2022/10/26 20:40:21;;;;;;;1.73;0.68;;;15.70;99.90;;;;;;20813481;28;20562;-38
2022/10/26 20:50:24;;;;;;;5.55;2.22;;;15.60;99.90;;;;;;20809755;28;20111;-38
2022/10/26 21:00:25;;;;;;;3.15;1.33;;;15.50;99.90;;;;;;20808334;28;20227;-38
2022/10/26 21:10:28;;;;;;;4.15;1.85;;;15.50;99.90;;;;;;20810234;28;20525;-38
2022/10/26 21:20:29;;;;;;;4.57;1.48;;;15.60;99.90;;;;;;20804577;28;20037;-38
2022/10/26 21:30:31;;;;;;;2.88;1.02;;;15.50;99.90;;;;;;20805333;28;20060;-38
2022/10/26 21:40:32;;;;;;;2.58;0.90;;;15.60;99.90;;;;;;20800791;28;21962;-38
2022/10/26 21:50:33;;;;;;;2.42;1.08;;;15.50;99.90;;;;;;20777033;28;20041;-38
2022/10/26 22:00:34;;;;;;;3.05;1.58;;;15.40;99.90;;;;;;20802530;28;20041;-38
2022/10/26 22:10:35;;;;;;;3.08;1.33;;;15.50;99.90;;;;;;20807254;28;20109;-38
2022/10/26 22:20:36;;;;;;;3.90;1.40;;;15.50;99.90;;;;;;20810718;28;20053;-38
2022/10/26 22:30:37;;;;;;;2.05;0.90;;;15.50;99.90;;;;;;20810870;28;20288;-38
2022/10/26 22:40:38;;;;;;;2.28;1.30;;;15.70;99.90;;;;;;20809311;28;20416;-38
2022/10/26 22:50:39;;;;;;;1.90;1.20;;;15.70;99.90;;;;;;20816521;28;20057;-38
2022/10/26 23:00:40;;;;;;;1.60;0.68;;;15.80;99.90;;;;;;20810667;28;20045;-38
2022/10/26 23:10:41;;;;;;;2.40;1.08;;;15.90;99.90;;;;;;20805132;28;20127;-38
2022/10/26 23:20:42;;;;;;;5.90;1.38;;;15.90;99.90;;;;;;20807702;28;20034;-38
2022/10/26 23:30:46;;;;;;;3.20;1.10;;;16.00;99.90;;;;;;20795037;28;20048;-38
2022/10/26 23:40:52;;;;;;;2.60;1.35;;;16.00;99.90;;;;;;20807923;28;20107;-38
2022/10/26 23:50:54;;;;;;;4.35;1.55;;;16.10;99.90;;;;;;20803890;28;20167;-38
